Etusivu
METAR-TAF:

METAR-TAF

Lentoasemat :

Limoges, Ranska

Leveyspiiri: 45-52N, Pituuspiiri: 001-11E, korkeus merenpinnasta: 396 m

Tämänhetkinen sää

Tämä raportti tehtiin 20 minuuttia sitten, kello 18.00 UTC
Tuuli 7 kn pohjoisesta/koillisesta
Lämpötila 25°C
Kosteus 47%
Ilmanpaine 1019 hPa
Näkyvyys 10 km tai enemmän
ei pilviä alle 1500 m:ssä eikä cumulonimbus-pilviä

METAR: LFBL 151800Z AUTO 03007KT CAVOK 25/13 Q1019 NOSIG

Aika: 20:20 (18:20 UTC)

Sääennuste

Tämä raportti tehtiin 1 tunti ja 20 minuuttia sitten, kello 17.00 UTC
Ennuste voimassa 15. päivästä klo 18 UTC - 16. päivään klo 18 UTC
Tuuli 5 kn pohjoisesta/koillisesta
Näkyvyys 10 km tai enemmän
ei pilviä alle 1500 m:ssä eikä cumulonimbus-pilviä

TAF: LFBL 151700Z 1518/1618 02005KT CAVOK

Säähavainnot ja -ennusteet yli 4000 lentoasemalta (METAR- ja TAF-raportit).

Käytössä olevat sääasemat on merkitty karttaan keltaisilla ja punaisilla pisteillä.

Aseta hiiri pisteen päälle nähdäksesi sääaseman nimen.

Klikkaa sitten nähdäksesi säähavainnot ja -ennusteet.

Kartan vaihtaminen: klikkaa mustalla rastilla varustettuja vihreitä pisteitä, niin voit zoomata sisään; viivalla varustettua vihreää pistettä, niin voit zoomata ulos tai vihreitä nuolia, niin pääset viereisille kartoille.


METAR-TAF: